2V6

Yuma Municipalcipal Airport

Yuma, Colorado, USA
METAR K2V6 170014Z AUTO 16006KT 10SM CLR 28/01 A3011 RMK AO2
Observed Flight Rules
Jul-17 @ 00:14 UTC (12 minutes ago) Visual Flight Rules
Wind Visibility Clouds
160° at 6 knots 10 miles
  • Clear skies
Temperatures Readings
Current 28°C / 82°F
Dewpoint 1°C / 34°F
Humidity 17%
Altimeter 30.11" Hg
Pressure 1020 hPa
Elevation 1261
METAR K2V6 170014Z AUTO 16006KT 10SM CLR 28/01 A3011 RMK AO2
Observed Flight Rules
Jul-17 @ 00:14 UTC
(12 minutes ago)
VFR
Wind Visibility
160° at 6 knots 10 miles
Clouds
  • Clear skies
Temperature Dewpoint
28°C / 82°F 1°C / 34°F
Humidity Altimeter Pressure
17% 30.11" Hg 1020 hPa